sensor_id;sensor_type;location;lat;lon;timestamp;P1;durP1;ratioP1;P2;durP2;ratioP2
23567;SDS011;11962;50.838;4.430;2023-12-28T00:00:48;4.88;;;2.45;;
23567;SDS011;11962;50.838;4.430;2023-12-28T00:03:14;5.82;;;2.50;;
23567;SDS011;11962;50.838;4.430;2023-12-28T00:05:40;5.00;;;2.53;;
23567;SDS011;11962;50.838;4.430;2023-12-28T00:08:06;4.30;;;2.40;;
23567;SDS011;11962;50.838;4.430;2023-12-28T00:10:32;6.78;;;2.50;;
23567;SDS011;11962;50.838;4.430;2023-12-28T00:12:57;4.57;;;2.75;;
23567;SDS011;11962;50.838;4.430;2023-12-28T00:15:23;5.90;;;2.35;;
23567;SDS011;11962;50.838;4.430;2023-12-28T00:17:49;3.25;;;2.30;;
23567;SDS011;11962;50.838;4.430;2023-12-28T00:20:14;3.47;;;2.50;;
23567;SDS011;11962;50.838;4.430;2023-12-28T00:22:40;6.15;;;2.50;;
23567;SDS011;11962;50.838;4.430;2023-12-28T00:25:06;5.85;;;2.70;;
23567;SDS011;11962;50.838;4.430;2023-12-28T00:27:32;3.90;;;2.58;;
23567;SDS011;11962;50.838;4.430;2023-12-28T00:30:03;4.47;;;2.38;;
23567;SDS011;11962;50.838;4.430;2023-12-28T00:32:30;16.45;;;2.35;;
23567;SDS011;11962;50.838;4.430;2023-12-28T00:34:55;4.97;;;2.05;;
23567;SDS011;11962;50.838;4.430;2023-12-28T00:37:21;5.03;;;2.65;;
23567;SDS011;11962;50.838;4.430;2023-12-28T00:39:47;4.88;;;2.67;;
23567;SDS011;11962;50.838;4.430;2023-12-28T00:42:15;3.95;;;2.30;;
23567;SDS011;11962;50.838;4.430;2023-12-28T00:44:41;6.35;;;2.63;;
23567;SDS011;11962;50.838;4.430;2023-12-28T00:47:06;3.80;;;2.63;;
23567;SDS011;11962;50.838;4.430;2023-12-28T00:49:32;4.75;;;2.55;;
23567;SDS011;11962;50.838;4.430;2023-12-28T00:51:58;5.85;;;2.25;;
23567;SDS011;11962;50.838;4.430;2023-12-28T00:54:24;4.38;;;2.85;;
23567;SDS011;11962;50.838;4.430;2023-12-28T00:56:49;5.25;;;2.33;;
23567;SDS011;11962;50.838;4.430;2023-12-28T00:59:15;4.63;;;2.50;;
23567;SDS011;11962;50.838;4.430;2023-12-28T01:01:41;6.03;;;2.13;;
23567;SDS011;11962;50.838;4.430;2023-12-28T01:04:06;3.42;;;2.15;;
23567;SDS011;11962;50.838;4.430;2023-12-28T01:06:32;6.35;;;2.30;;
23567;SDS011;11962;50.838;4.430;2023-12-28T01:08:58;4.53;;;2.40;;
23567;SDS011;11962;50.838;4.430;2023-12-28T01:11:23;6.55;;;2.72;;
23567;SDS011;11962;50.838;4.430;2023-12-28T01:13:51;5.57;;;2.50;;
23567;SDS011;11962;50.838;4.430;2023-12-28T01:16:16;5.13;;;2.22;;
23567;SDS011;11962;50.838;4.430;2023-12-28T01:18:42;5.78;;;2.78;;
23567;SDS011;11962;50.838;4.430;2023-12-28T01:21:08;4.70;;;2.50;;
23567;SDS011;11962;50.838;4.430;2023-12-28T01:23:34;5.68;;;2.72;;
23567;SDS011;11962;50.838;4.430;2023-12-28T01:25:59;4.78;;;2.60;;
23567;SDS011;11962;50.838;4.430;2023-12-28T01:28:25;6.60;;;2.70;;
23567;SDS011;11962;50.838;4.430;2023-12-28T01:30:51;4.07;;;2.30;;
23567;SDS011;11962;50.838;4.430;2023-12-28T01:33:17;5.50;;;2.72;;
23567;SDS011;11962;50.838;4.430;2023-12-28T01:35:43;5.15;;;2.60;;
23567;SDS011;11962;50.838;4.430;2023-12-28T01:38:08;3.85;;;2.08;;
23567;SDS011;11962;50.838;4.430;2023-12-28T01:40:34;5.05;;;2.50;;
23567;SDS011;11962;50.838;4.430;2023-12-28T01:43:00;4.85;;;2.10;;
23567;SDS011;11962;50.838;4.430;2023-12-28T01:45:26;4.10;;;2.35;;
23567;SDS011;11962;50.838;4.430;2023-12-28T01:47:55;4.43;;;2.28;;
23567;SDS011;11962;50.838;4.430;2023-12-28T01:50:22;4.45;;;2.22;;
23567;SDS011;11962;50.838;4.430;2023-12-28T01:52:49;5.65;;;2.15;;
23567;SDS011;11962;50.838;4.430;2023-12-28T01:55:15;4.00;;;2.17;;
23567;SDS011;11962;50.838;4.430;2023-12-28T01:57:42;5.30;;;2.25;;
23567;SDS011;11962;50.838;4.430;2023-12-28T02:00:08;4.68;;;2.20;;
23567;SDS011;11962;50.838;4.430;2023-12-28T02:02:35;6.63;;;2.22;;
23567;SDS011;11962;50.838;4.430;2023-12-28T02:05:01;8.45;;;2.13;;
23567;SDS011;11962;50.838;4.430;2023-12-28T02:07:28;3.90;;;2.00;;
23567;SDS011;11962;50.838;4.430;2023-12-28T02:09:55;4.88;;;2.17;;
23567;SDS011;11962;50.838;4.430;2023-12-28T02:12:20;3.58;;;2.00;;
23567;SDS011;11962;50.838;4.430;2023-12-28T02:14:46;4.40;;;2.10;;
23567;SDS011;11962;50.838;4.430;2023-12-28T02:17:14;4.88;;;2.03;;
23567;SDS011;11962;50.838;4.430;2023-12-28T02:19:51;6.10;;;2.25;;
23567;SDS011;11962;50.838;4.430;2023-12-28T02:22:19;5.32;;;2.15;;
23567;SDS011;11962;50.838;4.430;2023-12-28T02:27:32;5.47;;;1.77;;
23567;SDS011;11962;50.838;4.430;2023-12-28T02:30:09;6.40;;;2.35;;
23567;SDS011;11962;50.838;4.430;2023-12-28T02:32:38;6.18;;;1.90;;
23567;SDS011;11962;50.838;4.430;2023-12-28T02:37:50;4.97;;;2.20;;
23567;SDS011;11962;50.838;4.430;2023-12-28T02:40:17;4.32;;;1.90;;
23567;SDS011;11962;50.838;4.430;2023-12-28T02:42:44;5.75;;;2.03;;
23567;SDS011;11962;50.838;4.430;2023-12-28T02:45:10;4.90;;;2.45;;
23567;SDS011;11962;50.838;4.430;2023-12-28T02:47:36;5.38;;;2.13;;
23567;SDS011;11962;50.838;4.430;2023-12-28T02:50:02;5.70;;;2.08;;
23567;SDS011;11962;50.838;4.430;2023-12-28T02:52:28;7.47;;;2.45;;
23567;SDS011;11962;50.838;4.430;2023-12-28T02:54:53;5.50;;;1.88;;
23567;SDS011;11962;50.838;4.430;2023-12-28T02:57:19;5.45;;;2.35;;
23567;SDS011;11962;50.838;4.430;2023-12-28T02:59:45;7.47;;;2.10;;
23567;SDS011;11962;50.838;4.430;2023-12-28T03:02:11;8.50;;;2.38;;
23567;SDS011;11962;50.838;4.430;2023-12-28T03:04:36;7.75;;;2.50;;
23567;SDS011;11962;50.838;4.430;2023-12-28T03:07:02;9.70;;;2.55;;
23567;SDS011;11962;50.838;4.430;2023-12-28T03:09:29;6.93;;;2.25;;
23567;SDS011;11962;50.838;4.430;2023-12-28T03:11:54;4.10;;;1.80;;
23567;SDS011;11962;50.838;4.430;2023-12-28T03:14:20;7.13;;;2.30;;
23567;SDS011;11962;50.838;4.430;2023-12-28T03:16:46;6.20;;;1.98;;
23567;SDS011;11962;50.838;4.430;2023-12-28T03:19:12;5.60;;;1.80;;
23567;SDS011;11962;50.838;4.430;2023-12-28T03:21:38;6.82;;;2.20;;
23567;SDS011;11962;50.838;4.430;2023-12-28T03:24:05;8.05;;;2.25;;
23567;SDS011;11962;50.838;4.430;2023-12-28T03:26:31;6.85;;;2.08;;
23567;SDS011;11962;50.838;4.430;2023-12-28T03:28:57;7.85;;;2.15;;
23567;SDS011;11962;50.838;4.430;2023-12-28T03:31:22;9.10;;;2.08;;
23567;SDS011;11962;50.838;4.430;2023-12-28T03:33:48;11.73;;;2.85;;
23567;SDS011;11962;50.838;4.430;2023-12-28T03:36:20;9.73;;;2.00;;
23567;SDS011;11962;50.838;4.430;2023-12-28T03:38:46;7.22;;;2.03;;
23567;SDS011;11962;50.838;4.430;2023-12-28T03:41:18;9.48;;;1.98;;
23567;SDS011;11962;50.838;4.430;2023-12-28T03:43:47;6.25;;;2.45;;
23567;SDS011;11962;50.838;4.430;2023-12-28T03:46:13;7.50;;;2.08;;
23567;SDS011;11962;50.838;4.430;2023-12-28T03:48:39;9.07;;;2.10;;
23567;SDS011;11962;50.838;4.430;2023-12-28T03:51:05;8.52;;;2.03;;
23567;SDS011;11962;50.838;4.430;2023-12-28T03:53:31;6.13;;;2.05;;
23567;SDS011;11962;50.838;4.430;2023-12-28T03:56:00;8.32;;;2.00;;
23567;SDS011;11962;50.838;4.430;2023-12-28T03:58:26;6.55;;;1.85;;
23567;SDS011;11962;50.838;4.430;2023-12-28T04:00:52;10.73;;;2.72;;
23567;SDS011;11962;50.838;4.430;2023-12-28T04:03:18;7.93;;;2.10;;
23567;SDS011;11962;50.838;4.430;2023-12-28T04:05:43;5.82;;;2.20;;
23567;SDS011;11962;50.838;4.430;2023-12-28T04:08:09;5.50;;;1.98;;
23567;SDS011;11962;50.838;4.430;2023-12-28T04:10:35;5.35;;;2.15;;
23567;SDS011;11962;50.838;4.430;2023-12-28T04:13:02;8.35;;;2.03;;
23567;SDS011;11962;50.838;4.430;2023-12-28T04:15:28;5.85;;;2.13;;
23567;SDS011;11962;50.838;4.430;2023-12-28T04:17:55;6.90;;;2.03;;
23567;SDS011;11962;50.838;4.430;2023-12-28T04:20:21;13.18;;;2.67;;
23567;SDS011;11962;50.838;4.430;2023-12-28T04:22:46;6.70;;;1.80;;
23567;SDS011;11962;50.838;4.430;2023-12-28T04:25:12;8.30;;;2.10;;
23567;SDS011;11962;50.838;4.430;2023-12-28T04:27:38;8.90;;;2.15;;
23567;SDS011;11962;50.838;4.430;2023-12-28T04:30:05;9.10;;;2.10;;
23567;SDS011;11962;50.838;4.430;2023-12-28T04:32:34;10.45;;;2.08;;
23567;SDS011;11962;50.838;4.430;2023-12-28T04:37:25;11.07;;;1.98;;
23567;SDS011;11962;50.838;4.430;2023-12-28T04:39:53;11.05;;;2.42;;
23567;SDS011;11962;50.838;4.430;2023-12-28T04:42:19;8.02;;;2.10;;
23567;SDS011;11962;50.838;4.430;2023-12-28T04:44:45;10.48;;;2.00;;
23567;SDS011;11962;50.838;4.430;2023-12-28T04:47:10;15.98;;;2.42;;
23567;SDS011;11962;50.838;4.430;2023-12-28T04:49:36;7.32;;;1.73;;
23567;SDS011;11962;50.838;4.430;2023-12-28T04:52:02;7.82;;;2.08;;
23567;SDS011;11962;50.838;4.430;2023-12-28T04:54:28;11.05;;;2.38;;
23567;SDS011;11962;50.838;4.430;2023-12-28T04:56:54;6.85;;;1.92;;
23567;SDS011;11962;50.838;4.430;2023-12-28T04:59:19;10.50;;;2.03;;
23567;SDS011;11962;50.838;4.430;2023-12-28T05:01:45;15.77;;;2.38;;
23567;SDS011;11962;50.838;4.430;2023-12-28T05:04:11;6.97;;;2.10;;
23567;SDS011;11962;50.838;4.430;2023-12-28T05:06:37;14.90;;;2.35;;
23567;SDS011;11962;50.838;4.430;2023-12-28T05:09:03;13.07;;;2.25;;
23567;SDS011;11962;50.838;4.430;2023-12-28T05:11:29;9.77;;;2.65;;
23567;SDS011;11962;50.838;4.430;2023-12-28T05:13:55;13.82;;;2.30;;
23567;SDS011;11962;50.838;4.430;2023-12-28T05:16:21;12.52;;;2.53;;
23567;SDS011;11962;50.838;4.430;2023-12-28T05:18:47;13.52;;;2.75;;
23567;SDS011;11962;50.838;4.430;2023-12-28T05:21:13;10.50;;;2.03;;
23567;SDS011;11962;50.838;4.430;2023-12-28T05:23:39;9.27;;;2.05;;
23567;SDS011;11962;50.838;4.430;2023-12-28T05:26:05;13.23;;;2.00;;
23567;SDS011;11962;50.838;4.430;2023-12-28T05:28:31;12.50;;;2.25;;
23567;SDS011;11962;50.838;4.430;2023-12-28T05:30:57;13.60;;;2.50;;
23567;SDS011;11962;50.838;4.430;2023-12-28T05:33:24;11.80;;;2.10;;
23567;SDS011;11962;50.838;4.430;2023-12-28T05:35:50;8.02;;;2.00;;
23567;SDS011;11962;50.838;4.430;2023-12-28T05:38:16;14.82;;;2.63;;
23567;SDS011;11962;50.838;4.430;2023-12-28T05:40:42;11.77;;;2.38;;
23567;SDS011;11962;50.838;4.430;2023-12-28T05:43:10;11.05;;;2.33;;
23567;SDS011;11962;50.838;4.430;2023-12-28T05:45:36;11.00;;;2.30;;
23567;SDS011;11962;50.838;4.430;2023-12-28T05:48:02;14.32;;;2.78;;
23567;SDS011;11962;50.838;4.430;2023-12-28T05:50:28;15.80;;;2.78;;
23567;SDS011;11962;50.838;4.430;2023-12-28T05:52:53;14.30;;;3.05;;
23567;SDS011;11962;50.838;4.430;2023-12-28T05:55:20;11.02;;;2.30;;
23567;SDS011;11962;50.838;4.430;2023-12-28T05:57:46;13.70;;;2.28;;
23567;SDS011;11962;50.838;4.430;2023-12-28T06:00:12;11.40;;;1.90;;
23567;SDS011;11962;50.838;4.430;2023-12-28T06:02:39;10.57;;;2.50;;
23567;SDS011;11962;50.838;4.430;2023-12-28T06:05:06;16.02;;;2.47;;
23567;SDS011;11962;50.838;4.430;2023-12-28T06:07:31;11.90;;;2.03;;
23567;SDS011;11962;50.838;4.430;2023-12-28T06:09:58;10.13;;;2.42;;
23567;SDS011;11962;50.838;4.430;2023-12-28T06:12:24;11.32;;;2.42;;
23567;SDS011;11962;50.838;4.430;2023-12-28T06:14:50;11.65;;;2.45;;
23567;SDS011;11962;50.838;4.430;2023-12-28T06:17:15;12.55;;;1.95;;
23567;SDS011;11962;50.838;4.430;2023-12-28T06:19:43;16.75;;;2.30;;
23567;SDS011;11962;50.838;4.430;2023-12-28T06:22:09;13.50;;;2.72;;
23567;SDS011;11962;50.838;4.430;2023-12-28T06:24:38;13.82;;;2.30;;
23567;SDS011;11962;50.838;4.430;2023-12-28T06:27:05;11.98;;;2.25;;
23567;SDS011;11962;50.838;4.430;2023-12-28T06:29:31;16.55;;;2.58;;
23567;SDS011;11962;50.838;4.430;2023-12-28T06:31:57;12.20;;;2.33;;
23567;SDS011;11962;50.838;4.430;2023-12-28T06:34:22;7.85;;;2.10;;
23567;SDS011;11962;50.838;4.430;2023-12-28T06:36:48;14.35;;;2.28;;
23567;SDS011;11962;50.838;4.430;2023-12-28T06:39:14;12.10;;;2.67;;
23567;SDS011;11962;50.838;4.430;2023-12-28T06:41:40;14.00;;;2.30;;
23567;SDS011;11962;50.838;4.430;2023-12-28T06:44:05;27.40;;;3.25;;
23567;SDS011;11962;50.838;4.430;2023-12-28T06:46:31;12.85;;;2.75;;
23567;SDS011;11962;50.838;4.430;2023-12-28T06:48:57;13.85;;;3.10;;
23567;SDS011;11962;50.838;4.430;2023-12-28T06:51:24;15.25;;;2.35;;
23567;SDS011;11962;50.838;4.430;2023-12-28T06:53:50;13.07;;;2.13;;
23567;SDS011;11962;50.838;4.430;2023-12-28T06:56:16;16.00;;;3.22;;
23567;SDS011;11962;50.838;4.430;2023-12-28T06:58:42;11.55;;;2.15;;
23567;SDS011;11962;50.838;4.430;2023-12-28T07:01:08;10.38;;;2.13;;
23567;SDS011;11962;50.838;4.430;2023-12-28T07:03:34;10.38;;;1.70;;
23567;SDS011;11962;50.838;4.430;2023-12-28T07:06:00;10.35;;;1.85;;
23567;SDS011;11962;50.838;4.430;2023-12-28T07:08:28;16.60;;;2.58;;
23567;SDS011;11962;50.838;4.430;2023-12-28T07:10:54;9.88;;;2.38;;
23567;SDS011;11962;50.838;4.430;2023-12-28T07:13:19;15.18;;;2.05;;
23567;SDS011;11962;50.838;4.430;2023-12-28T07:15:45;16.27;;;2.83;;
23567;SDS011;11962;50.838;4.430;2023-12-28T07:18:11;14.65;;;2.45;;
23567;SDS011;11962;50.838;4.430;2023-12-28T07:20:38;15.85;;;2.42;;
23567;SDS011;11962;50.838;4.430;2023-12-28T07:23:04;20.05;;;2.60;;
23567;SDS011;11962;50.838;4.430;2023-12-28T07:25:29;17.23;;;2.75;;
23567;SDS011;11962;50.838;4.430;2023-12-28T07:27:55;16.40;;;2.60;;
23567;SDS011;11962;50.838;4.430;2023-12-28T07:30:21;12.57;;;2.33;;
23567;SDS011;11962;50.838;4.430;2023-12-28T07:32:47;12.18;;;2.78;;
23567;SDS011;11962;50.838;4.430;2023-12-28T07:35:12;16.73;;;2.80;;
23567;SDS011;11962;50.838;4.430;2023-12-28T07:37:38;14.77;;;2.25;;
23567;SDS011;11962;50.838;4.430;2023-12-28T07:40:04;16.00;;;2.90;;
23567;SDS011;11962;50.838;4.430;2023-12-28T07:42:31;15.38;;;2.63;;
23567;SDS011;11962;50.838;4.430;2023-12-28T07:44:56;13.48;;;2.42;;
23567;SDS011;11962;50.838;4.430;2023-12-28T07:47:22;23.83;;;2.95;;
23567;SDS011;11962;50.838;4.430;2023-12-28T07:49:48;15.18;;;2.60;;
23567;SDS011;11962;50.838;4.430;2023-12-28T07:52:13;20.85;;;3.17;;
23567;SDS011;11962;50.838;4.430;2023-12-28T07:54:39;13.63;;;2.78;;
23567;SDS011;11962;50.838;4.430;2023-12-28T07:57:05;17.23;;;2.63;;
23567;SDS011;11962;50.838;4.430;2023-12-28T07:59:30;14.82;;;3.00;;
23567;SDS011;11962;50.838;4.430;2023-12-28T08:01:56;14.90;;;2.53;;
23567;SDS011;11962;50.838;4.430;2023-12-28T08:04:22;24.50;;;3.60;;
23567;SDS011;11962;50.838;4.430;2023-12-28T08:06:48;16.05;;;2.63;;
23567;SDS011;11962;50.838;4.430;2023-12-28T08:09:13;15.82;;;2.47;;
23567;SDS011;11962;50.838;4.430;2023-12-28T08:11:39;18.02;;;2.85;;
23567;SDS011;11962;50.838;4.430;2023-12-28T08:14:05;16.92;;;2.90;;
23567;SDS011;11962;50.838;4.430;2023-12-28T08:16:31;18.75;;;2.95;;
23567;SDS011;11962;50.838;4.430;2023-12-28T08:18:57;11.35;;;2.35;;
23567;SDS011;11962;50.838;4.430;2023-12-28T08:21:22;11.88;;;2.25;;
23567;SDS011;11962;50.838;4.430;2023-12-28T08:23:48;13.82;;;2.42;;
23567;SDS011;11962;50.838;4.430;2023-12-28T08:26:14;22.63;;;3.88;;
23567;SDS011;11962;50.838;4.430;2023-12-28T08:28:40;12.30;;;2.72;;
23567;SDS011;11962;50.838;4.430;2023-12-28T08:31:06;14.93;;;2.55;;
23567;SDS011;11962;50.838;4.430;2023-12-28T08:33:33;10.68;;;2.85;;
23567;SDS011;11962;50.838;4.430;2023-12-28T08:36:00;14.20;;;2.50;;
23567;SDS011;11962;50.838;4.430;2023-12-28T08:38:28;16.47;;;3.40;;
23567;SDS011;11962;50.838;4.430;2023-12-28T08:40:53;15.40;;;2.60;;
23567;SDS011;11962;50.838;4.430;2023-12-28T08:43:19;10.50;;;2.40;;
23567;SDS011;11962;50.838;4.430;2023-12-28T08:45:45;16.50;;;2.50;;
23567;SDS011;11962;50.838;4.430;2023-12-28T08:48:10;15.55;;;2.63;;
23567;SDS011;11962;50.838;4.430;2023-12-28T08:50:36;14.82;;;3.05;;
23567;SDS011;11962;50.838;4.430;2023-12-28T08:53:02;16.85;;;2.42;;
23567;SDS011;11962;50.838;4.430;2023-12-28T08:55:28;10.23;;;2.10;;
23567;SDS011;11962;50.838;4.430;2023-12-28T08:57:53;14.65;;;2.78;;
23567;SDS011;11962;50.838;4.430;2023-12-28T09:00:19;15.05;;;2.85;;
23567;SDS011;11962;50.838;4.430;2023-12-28T09:02:45;19.10;;;2.65;;
23567;SDS011;11962;50.838;4.430;2023-12-28T09:05:11;11.30;;;2.60;;
23567;SDS011;11962;50.838;4.430;2023-12-28T09:07:36;16.08;;;2.90;;
23567;SDS011;11962;50.838;4.430;2023-12-28T09:10:08;15.27;;;2.25;;
23567;SDS011;11962;50.838;4.430;2023-12-28T09:12:37;12.90;;;2.85;;
23567;SDS011;11962;50.838;4.430;2023-12-28T09:15:05;12.38;;;2.50;;
23567;SDS011;11962;50.838;4.430;2023-12-28T09:17:32;13.57;;;2.22;;
23567;SDS011;11962;50.838;4.430;2023-12-28T09:19:58;14.93;;;2.63;;
23567;SDS011;11962;50.838;4.430;2023-12-28T09:22:24;14.95;;;2.65;;
23567;SDS011;11962;50.838;4.430;2023-12-28T09:24:50;13.70;;;2.72;;
23567;SDS011;11962;50.838;4.430;2023-12-28T09:27:16;13.77;;;2.75;;
23567;SDS011;11962;50.838;4.430;2023-12-28T09:29:42;19.52;;;2.92;;
23567;SDS011;11962;50.838;4.430;2023-12-28T09:32:08;16.08;;;2.70;;
23567;SDS011;11962;50.838;4.430;2023-12-28T09:34:33;15.13;;;2.33;;
23567;SDS011;11962;50.838;4.430;2023-12-28T09:36:59;14.27;;;2.45;;
23567;SDS011;11962;50.838;4.430;2023-12-28T09:39:25;18.90;;;2.72;;
23567;SDS011;11962;50.838;4.430;2023-12-28T09:42:39;19.23;;;3.28;;
23567;SDS011;11962;50.838;4.430;2023-12-28T09:44:42;19.23;;;3.13;;
23567;SDS011;11962;50.838;4.430;2023-12-28T09:47:09;21.63;;;2.58;;
23567;SDS011;11962;50.838;4.430;2023-12-28T09:52:04;14.88;;;2.65;;
23567;SDS011;11962;50.838;4.430;2023-12-28T09:54:30;9.93;;;2.53;;
23567;SDS011;11962;50.838;4.430;2023-12-28T09:56:56;18.95;;;3.10;;
23567;SDS011;11962;50.838;4.430;2023-12-28T09:59:23;15.20;;;2.88;;
23567;SDS011;11962;50.838;4.430;2023-12-28T10:01:49;15.52;;;2.65;;
23567;SDS011;11962;50.838;4.430;2023-12-28T10:04:15;14.85;;;2.50;;
23567;SDS011;11962;50.838;4.430;2023-12-28T10:06:41;18.10;;;2.85;;
23567;SDS011;11962;50.838;4.430;2023-12-28T10:09:07;15.07;;;2.80;;
23567;SDS011;11962;50.838;4.430;2023-12-28T10:11:33;13.80;;;2.45;;
23567;SDS011;11962;50.838;4.430;2023-12-28T10:13:59;13.77;;;2.72;;
23567;SDS011;11962;50.838;4.430;2023-12-28T10:16:25;15.45;;;2.80;;
23567;SDS011;11962;50.838;4.430;2023-12-28T10:18:51;9.82;;;2.15;;
23567;SDS011;11962;50.838;4.430;2023-12-28T10:21:17;18.73;;;2.88;;
23567;SDS011;11962;50.838;4.430;2023-12-28T10:23:43;20.13;;;2.50;;
23567;SDS011;11962;50.838;4.430;2023-12-28T10:26:08;16.98;;;2.75;;
23567;SDS011;11962;50.838;4.430;2023-12-28T10:28:35;13.63;;;3.08;;
23567;SDS011;11962;50.838;4.430;2023-12-28T10:31:04;12.60;;;1.90;;
23567;SDS011;11962;50.838;4.430;2023-12-28T10:33:37;14.73;;;3.00;;
23567;SDS011;11962;50.838;4.430;2023-12-28T10:36:06;12.63;;;2.92;;
23567;SDS011;11962;50.838;4.430;2023-12-28T10:38:37;17.60;;;2.67;;
23567;SDS011;11962;50.838;4.430;2023-12-28T10:41:06;15.88;;;2.78;;
23567;SDS011;11962;50.838;4.430;2023-12-28T10:43:35;18.13;;;2.75;;
23567;SDS011;11962;50.838;4.430;2023-12-28T10:46:26;13.27;;;2.60;;
23567;SDS011;11962;50.838;4.430;2023-12-28T10:48:53;18.67;;;2.63;;
23567;SDS011;11962;50.838;4.430;2023-12-28T10:51:25;13.88;;;2.28;;
23567;SDS011;11962;50.838;4.430;2023-12-28T10:53:59;13.70;;;2.58;;
23567;SDS011;11962;50.838;4.430;2023-12-28T10:56:45;12.18;;;2.67;;
23567;SDS011;11962;50.838;4.430;2023-12-28T10:59:17;13.13;;;2.80;;
23567;SDS011;11962;50.838;4.430;2023-12-28T11:01:46;14.52;;;3.08;;
23567;SDS011;11962;50.838;4.430;2023-12-28T11:04:22;16.75;;;3.15;;
23567;SDS011;11962;50.838;4.430;2023-12-28T11:06:55;15.07;;;2.97;;
23567;SDS011;11962;50.838;4.430;2023-12-28T11:09:23;11.07;;;2.63;;
23567;SDS011;11962;50.838;4.430;2023-12-28T11:11:51;13.32;;;2.60;;
23567;SDS011;11962;50.838;4.430;2023-12-28T11:14:19;17.33;;;2.75;;
23567;SDS011;11962;50.838;4.430;2023-12-28T11:16:46;17.08;;;2.70;;
23567;SDS011;11962;50.838;4.430;2023-12-28T11:19:12;14.20;;;2.58;;
23567;SDS011;11962;50.838;4.430;2023-12-28T11:21:38;17.70;;;2.83;;
23567;SDS011;11962;50.838;4.430;2023-12-28T11:24:05;22.25;;;2.85;;
23567;SDS011;11962;50.838;4.430;2023-12-28T11:26:31;14.73;;;3.00;;
23567;SDS011;11962;50.838;4.430;2023-12-28T11:29:03;13.45;;;2.45;;
23567;SDS011;11962;50.838;4.430;2023-12-28T11:31:33;9.68;;;2.40;;
23567;SDS011;11962;50.838;4.430;2023-12-28T11:33:59;13.13;;;2.92;;
23567;SDS011;11962;50.838;4.430;2023-12-28T11:36:35;14.18;;;2.88;;
23567;SDS011;11962;50.838;4.430;2023-12-28T11:39:05;15.40;;;3.30;;
23567;SDS011;11962;50.838;4.430;2023-12-28T11:41:35;17.10;;;2.80;;
23567;SDS011;11962;50.838;4.430;2023-12-28T11:44:04;14.90;;;2.92;;
23567;SDS011;11962;50.838;4.430;2023-12-28T11:46:34;21.27;;;2.60;;
23567;SDS011;11962;50.838;4.430;2023-12-28T11:51:34;18.75;;;3.40;;
23567;SDS011;11962;50.838;4.430;2023-12-28T11:54:03;12.90;;;2.50;;
23567;SDS011;11962;50.838;4.430;2023-12-28T11:56:30;16.20;;;2.63;;
23567;SDS011;11962;50.838;4.430;2023-12-28T11:58:56;13.07;;;2.90;;
23567;SDS011;11962;50.838;4.430;2023-12-28T12:01:23;16.35;;;2.53;;
23567;SDS011;11962;50.838;4.430;2023-12-28T12:03:49;16.10;;;2.55;;
23567;SDS011;11962;50.838;4.430;2023-12-28T12:06:15;16.27;;;3.55;;
23567;SDS011;11962;50.838;4.430;2023-12-28T12:08:44;16.50;;;3.15;;
23567;SDS011;11962;50.838;4.430;2023-12-28T12:11:14;14.27;;;2.78;;
23567;SDS011;11962;50.838;4.430;2023-12-28T12:13:43;14.45;;;2.88;;
23567;SDS011;11962;50.838;4.430;2023-12-28T12:16:09;13.63;;;3.00;;
23567;SDS011;11962;50.838;4.430;2023-12-28T12:18:35;20.55;;;2.80;;
23567;SDS011;11962;50.838;4.430;2023-12-28T12:21:01;17.38;;;2.63;;
23567;SDS011;11962;50.838;4.430;2023-12-28T12:23:28;12.85;;;2.75;;
23567;SDS011;11962;50.838;4.430;2023-12-28T12:25:53;15.85;;;2.90;;
23567;SDS011;11962;50.838;4.430;2023-12-28T12:28:20;16.10;;;2.88;;
23567;SDS011;11962;50.838;4.430;2023-12-28T12:30:55;13.05;;;2.58;;
23567;SDS011;11962;50.838;4.430;2023-12-28T12:33:21;16.83;;;3.05;;
23567;SDS011;11962;50.838;4.430;2023-12-28T12:35:48;19.55;;;2.90;;
23567;SDS011;11962;50.838;4.430;2023-12-28T12:38:15;16.25;;;2.33;;
23567;SDS011;11962;50.838;4.430;2023-12-28T12:40:42;15.07;;;2.42;;
23567;SDS011;11962;50.838;4.430;2023-12-28T12:43:08;15.52;;;2.83;;
23567;SDS011;11962;50.838;4.430;2023-12-28T12:45:34;23.13;;;3.38;;
23567;SDS011;11962;50.838;4.430;2023-12-28T12:48:01;18.33;;;2.63;;
23567;SDS011;11962;50.838;4.430;2023-12-28T12:50:28;12.38;;;2.30;;
23567;SDS011;11962;50.838;4.430;2023-12-28T12:52:55;14.35;;;2.60;;
23567;SDS011;11962;50.838;4.430;2023-12-28T12:55:20;15.80;;;2.75;;
23567;SDS011;11962;50.838;4.430;2023-12-28T12:57:47;18.23;;;3.42;;
23567;SDS011;11962;50.838;4.430;2023-12-28T13:00:13;20.63;;;3.75;;
23567;SDS011;11962;50.838;4.430;2023-12-28T13:02:39;10.18;;;2.35;;
23567;SDS011;11962;50.838;4.430;2023-12-28T13:05:05;13.20;;;2.05;;
23567;SDS011;11962;50.838;4.430;2023-12-28T13:07:31;10.02;;;1.98;;
23567;SDS011;11962;50.838;4.430;2023-12-28T13:09:57;17.58;;;2.67;;
23567;SDS011;11962;50.838;4.430;2023-12-28T13:12:23;17.58;;;2.95;;
23567;SDS011;11962;50.838;4.430;2023-12-28T13:14:50;18.63;;;2.75;;
23567;SDS011;11962;50.838;4.430;2023-12-28T13:17:16;14.50;;;2.53;;
23567;SDS011;11962;50.838;4.430;2023-12-28T13:19:44;15.00;;;2.60;;
23567;SDS011;11962;50.838;4.430;2023-12-28T13:22:10;17.98;;;2.53;;
23567;SDS011;11962;50.838;4.430;2023-12-28T13:24:35;11.73;;;2.42;;
23567;SDS011;11962;50.838;4.430;2023-12-28T13:27:01;17.38;;;2.60;;
23567;SDS011;11962;50.838;4.430;2023-12-28T13:29:28;17.67;;;3.05;;
23567;SDS011;11962;50.838;4.430;2023-12-28T13:31:55;14.00;;;2.88;;
23567;SDS011;11962;50.838;4.430;2023-12-28T13:34:20;14.90;;;2.35;;
23567;SDS011;11962;50.838;4.430;2023-12-28T13:36:48;16.90;;;2.40;;
23567;SDS011;11962;50.838;4.430;2023-12-28T13:39:13;12.98;;;2.58;;
23567;SDS011;11962;50.838;4.430;2023-12-28T13:41:40;13.27;;;2.25;;
23567;SDS011;11962;50.838;4.430;2023-12-28T13:44:06;19.17;;;3.03;;
23567;SDS011;11962;50.838;4.430;2023-12-28T13:46:37;11.52;;;2.63;;
23567;SDS011;11962;50.838;4.430;2023-12-28T13:51:32;17.52;;;2.95;;
23567;SDS011;11962;50.838;4.430;2023-12-28T13:53:59;16.40;;;2.65;;
23567;SDS011;11962;50.838;4.430;2023-12-28T13:56:24;16.42;;;2.95;;
23567;SDS011;11962;50.838;4.430;2023-12-28T13:58:50;15.48;;;2.33;;
23567;SDS011;11962;50.838;4.430;2023-12-28T14:01:16;12.23;;;2.10;;
23567;SDS011;11962;50.838;4.430;2023-12-28T14:03:42;11.52;;;2.30;;
23567;SDS011;11962;50.838;4.430;2023-12-28T14:06:09;14.00;;;2.42;;
23567;SDS011;11962;50.838;4.430;2023-12-28T14:08:35;11.88;;;2.15;;
23567;SDS011;11962;50.838;4.430;2023-12-28T14:11:01;12.77;;;2.83;;
23567;SDS011;11962;50.838;4.430;2023-12-28T14:13:27;20.27;;;2.67;;
23567;SDS011;11962;50.838;4.430;2023-12-28T14:15:53;13.73;;;2.58;;
23567;SDS011;11962;50.838;4.430;2023-12-28T14:18:19;16.70;;;2.75;;
23567;SDS011;11962;50.838;4.430;2023-12-28T14:20:45;14.43;;;2.78;;
23567;SDS011;11962;50.838;4.430;2023-12-28T14:23:10;17.58;;;3.05;;
23567;SDS011;11962;50.838;4.430;2023-12-28T14:25:37;16.13;;;2.60;;
23567;SDS011;11962;50.838;4.430;2023-12-28T14:28:03;13.63;;;2.58;;
23567;SDS011;11962;50.838;4.430;2023-12-28T14:30:30;15.80;;;2.60;;
23567;SDS011;11962;50.838;4.430;2023-12-28T14:32:56;22.35;;;2.92;;
23567;SDS011;11962;50.838;4.430;2023-12-28T14:35:22;15.57;;;2.72;;
23567;SDS011;11962;50.838;4.430;2023-12-28T14:37:48;15.77;;;2.45;;
23567;SDS011;11962;50.838;4.430;2023-12-28T14:40:14;9.40;;;2.08;;
23567;SDS011;11962;50.838;4.430;2023-12-28T14:42:40;11.75;;;2.20;;
23567;SDS011;11962;50.838;4.430;2023-12-28T14:45:06;14.10;;;2.70;;
23567;SDS011;11962;50.838;4.430;2023-12-28T14:47:32;9.93;;;2.40;;
23567;SDS011;11962;50.838;4.430;2023-12-28T14:49:58;13.38;;;2.28;;